Time;durP1;ratioP1;P1;durP2;ratioP2;P2;SDS_P1;SDS_P2;PMS_P1;PMS_P2;Temp;Humidity;BMP_temperature;BMP_pressure;BME280_temperature;BME280_humidity;BME280_pressure;Samples;Min_cycle;Max_cycle;Signal;HPM_P1;HPM_P2
2023/07/05 00:00:30;;;;;;;24.40;12.52;;;;;;;18.24;62.86;99350.72;5117451;27;20049;-65
2023/07/05 00:02:56;;;;;;;20.45;10.73;;;;;;;18.37;62.47;99353.78;5116865;27;20070;-68
2023/07/05 00:05:21;;;;;;;19.13;10.30;;;;;;;18.35;62.60;99355.81;5114207;27;20058;-68
2023/07/05 00:07:48;;;;;;;20.33;11.25;;;;;;;18.36;62.50;99360.19;5116901;27;20042;-67
2023/07/05 00:10:15;;;;;;;17.50;10.30;;;;;;;18.36;62.54;99367.44;5116508;27;20477;-67
2023/07/05 00:12:40;;;;;;;14.75;9.98;;;;;;;18.29;62.78;99361.84;5115756;27;20035;-66
2023/07/05 00:15:06;;;;;;;16.05;9.55;;;;;;;18.23;63.00;99364.38;5097571;27;20039;-66
2023/07/05 00:17:33;;;;;;;15.50;10.48;;;;;;;18.17;63.20;99374.00;5116182;27;20413;-67
2023/07/05 00:19:58;;;;;;;15.07;9.05;;;;;;;18.08;63.41;99365.00;5097297;27;20053;-68
2023/07/05 00:22:23;;;;;;;12.30;9.35;;;;;;;18.01;63.48;99368.53;5116487;27;20043;-69
2023/07/05 00:24:52;;;;;;;14.73;9.38;;;;;;;17.99;64.22;99371.38;5116308;27;20496;-68
2023/07/05 00:27:18;;;;;;;13.10;8.95;;;;;;;17.97;63.92;99367.16;5116350;27;20062;-72
2023/07/05 00:29:43;;;;;;;15.00;8.80;;;;;;;17.97;63.71;99378.78;5115838;27;20072;-65
2023/07/05 00:32:09;;;;;;;18.17;9.23;;;;;;;17.92;64.55;99380.31;5115820;27;20388;-65
2023/07/05 00:34:35;;;;;;;15.40;9.57;;;;;;;17.90;64.52;99385.00;5098027;27;20038;-65
2023/07/05 00:37:00;;;;;;;15.15;9.18;;;;;;;17.92;64.13;99383.00;5098181;27;20042;-67
2023/07/05 00:39:26;;;;;;;12.52;8.75;;;;;;;17.89;64.35;99365.28;5091478;27;20042;-69
2023/07/05 00:41:51;;;;;;;16.05;9.20;;;;;;;17.91;64.15;99374.06;5081356;27;20092;-64
2023/07/05 00:44:17;;;;;;;13.73;8.98;;;;;;;17.86;64.39;99360.22;5096911;27;20054;-64
2023/07/05 00:46:47;;;;;;;13.82;8.52;;;;;;;17.89;64.54;99370.69;5116340;27;20058;-65
2023/07/05 00:49:18;;;;;;;12.68;8.85;;;;;;;17.90;64.32;99366.97;5062524;27;20046;-64
2023/07/05 00:51:58;;;;;;;22.27;8.93;;;;;;;17.92;64.71;99366.81;5080091;27;20047;-65
2023/07/05 00:54:30;;;;;;;16.60;8.85;;;;;;;17.84;64.62;99373.00;5114679;27;20053;-64
2023/07/05 00:57:01;;;;;;;13.43;9.00;;;;;;;17.83;64.84;99378.59;5097020;27;20042;-65
2023/07/05 00:59:30;;;;;;;15.27;8.93;;;;;;;17.86;64.78;99384.47;5095265;27;20050;-66
2023/07/05 01:01:56;;;;;;;12.95;8.45;;;;;;;17.80;64.82;99377.06;5095157;27;20501;-66
2023/07/05 01:04:22;;;;;;;15.88;8.68;;;;;;;17.76;65.22;99371.13;5076773;27;20055;-66
2023/07/05 01:06:47;;;;;;;16.17;8.75;;;;;;;17.76;65.14;99381.06;5077203;27;20046;-63
2023/07/05 01:09:14;;;;;;;14.85;8.82;;;;;;;17.78;64.92;99374.50;5102701;27;20038;-64
2023/07/05 01:11:55;;;;;;;11.30;8.18;;;;;;;17.82;65.08;99379.59;5115493;27;20049;-65
2023/07/05 01:14:35;;;;;;;10.70;8.30;;;;;;;17.83;65.32;99378.59;5114690;27;20066;-64
2023/07/05 01:17:16;;;;;;;16.80;8.55;;;;;;;17.81;65.43;99396.78;5080145;27;20035;-64
2023/07/05 01:19:59;;;;;;;14.02;8.50;;;;;;;17.83;65.41;99381.28;5112981;27;20528;-65
2023/07/05 01:22:39;;;;;;;12.93;8.27;;;;;;;17.82;65.41;99382.28;5097453;27;20816;-64
2023/07/05 01:25:26;;;;;;;11.32;8.40;;;;;;;17.81;65.91;99377.91;5115211;27;20042;-64
2023/07/05 01:28:03;;;;;;;16.98;8.00;;;;;;;17.81;65.73;99377.91;5115625;27;20035;-64
2023/07/05 01:30:35;;;;;;;13.10;7.97;;;;;;;17.80;65.85;99379.75;5079493;27;20817;-64
2023/07/05 01:33:07;;;;;;;13.32;8.52;;;;;;;17.81;66.03;99380.59;5114274;27;20385;-64
2023/07/05 01:35:42;;;;;;;14.63;9.25;;;;;;;17.82;66.36;99383.13;5088376;27;20054;-67
2023/07/05 01:38:10;;;;;;;16.15;8.93;;;;;;;17.84;65.67;99382.94;5115776;27;20366;-66
2023/07/05 01:40:36;;;;;;;17.60;8.98;;;;;;;17.87;65.88;99378.09;5115056;27;20053;-66
2023/07/05 01:43:10;;;;;;;11.43;8.07;;;;;;;17.89;65.71;99386.88;5115285;27;20042;-66
2023/07/05 01:46:04;;;;;;;12.73;9.13;;;;;;;18.00;65.98;99378.47;5114976;27;20476;-70
2023/07/05 01:48:32;;;;;;;15.40;8.02;;;;;;;18.00;65.40;99385.72;4977808;28;20044;-72
2023/07/05 01:51:25;;;;;;;13.13;9.98;;;;;;;18.10;65.37;99384.56;5010784;28;20064;-73
2023/07/05 01:54:04;;;;;;;10.98;7.90;;;;;;;18.12;64.98;99381.72;5012435;28;20578;-71
2023/07/05 01:56:54;;;;;;;13.70;9.05;;;;;;;18.15;65.24;99386.78;5002842;28;20380;-72
2023/07/05 01:59:23;;;;;;;16.45;11.38;;;;;;;18.17;65.08;99389.34;4997889;28;20448;-71
2023/07/05 02:01:53;;;;;;;14.32;9.50;;;;;;;18.20;64.99;99394.38;4997914;28;20056;-73
2023/07/05 02:04:22;;;;;;;13.65;8.85;;;;;;;18.25;64.93;99383.94;4997055;28;20061;-72
2023/07/05 02:06:49;;;;;;;15.00;8.80;;;;;;;18.29;64.74;99382.59;4966400;28;20049;-68
2023/07/05 02:09:14;;;;;;;14.70;9.30;;;;;;;18.35;64.60;99384.66;5015327;28;20040;-69
2023/07/05 02:11:40;;;;;;;14.80;8.05;;;;;;;18.41;65.01;99384.81;4998099;28;20037;-70
2023/07/05 02:14:05;;;;;;;15.80;8.00;;;;;;;18.50;65.25;99380.31;4995992;28;20140;-69
2023/07/05 02:16:30;;;;;;;17.40;9.40;;;;;;;18.61;64.47;99371.06;4997171;28;20059;-68
2023/07/05 02:18:56;;;;;;;13.50;8.57;;;;;;;18.74;64.18;99376.78;5010295;28;20534;-69
2023/07/05 02:21:23;;;;;;;15.75;7.85;;;;;;;18.82;63.72;99385.75;5015058;28;20546;-70
2023/07/05 02:23:49;;;;;;;20.50;8.65;;;;;;;18.92;63.99;99380.19;4998884;28;20036;-69
2023/07/05 02:26:14;;;;;;;10.10;7.82;;;;;;;19.02;63.54;99407.03;5060850;27;20050;-69
2023/07/05 02:28:40;;;;;;;17.05;9.10;;;;;;;19.10;63.62;99393.50;5100148;27;20042;-69
2023/07/05 02:31:11;;;;;;;13.25;9.02;;;;;;;19.14;63.30;99390.31;5099240;27;20042;-70
2023/07/05 02:33:43;;;;;;;12.18;7.97;;;;;;;19.20;63.04;99383.34;5118680;27;20049;-70
2023/07/05 02:36:13;;;;;;;16.38;10.55;;;;;;;19.18;63.19;99378.16;5073185;27;20051;-71
2023/07/05 02:38:40;;;;;;;14.93;8.40;;;;;;;19.16;62.85;99377.47;5098062;27;20062;-70
2023/07/05 02:41:05;;;;;;;12.10;7.78;;;;;;;19.14;63.23;99379.50;5078939;27;20043;-69
2023/07/05 02:43:31;;;;;;;15.30;8.57;;;;;;;19.11;63.35;99377.13;5094427;27;20030;-70
2023/07/05 02:45:56;;;;;;;11.60;8.45;;;;;;;19.12;63.50;99369.88;5117874;27;20053;-69
2023/07/05 02:48:22;;;;;;;11.88;8.05;;;;;;;19.14;63.26;99389.47;5099287;27;20038;-70
2023/07/05 02:50:47;;;;;;;15.90;8.15;;;;;;;19.18;63.15;99375.44;5078925;27;20051;-69
2023/07/05 02:53:13;;;;;;;17.80;8.95;;;;;;;19.19;63.17;99398.72;5079627;27;20046;-69
2023/07/05 02:55:38;;;;;;;13.93;8.07;;;;;;;19.25;62.94;99381.00;5099924;27;20413;-69
2023/07/05 02:58:03;;;;;;;12.20;8.07;;;;;;;19.32;62.91;99383.84;5085820;27;20034;-70
2023/07/05 03:00:31;;;;;;;14.18;8.80;;;;;;;19.40;62.92;99376.59;5065799;27;20501;-70
2023/07/05 03:02:57;;;;;;;12.20;7.90;;;;;;;19.51;62.77;99378.97;5099568;27;20059;-69
2023/07/05 03:05:23;;;;;;;16.48;9.25;;;;;;;19.64;62.32;99375.69;5117155;27;20049;-69
2023/07/05 03:07:48;;;;;;;15.57;8.63;;;;;;;19.73;62.07;99369.25;5118118;27;20034;-69
2023/07/05 03:10:13;;;;;;;13.15;8.88;;;;;;;19.76;61.70;99385.09;5099877;27;20047;-70
2023/07/05 03:12:39;;;;;;;14.98;8.63;;;;;;;19.71;61.99;99392.06;5118448;27;20389;-70
2023/07/05 03:15:05;;;;;;;14.13;8.77;;;;;;;19.67;62.08;99388.88;5118163;27;20054;-69
2023/07/05 03:17:33;;;;;;;11.18;7.70;;;;;;;19.68;62.07;99387.84;5093198;27;20809;-71
2023/07/05 03:19:59;;;;;;;16.33;9.18;;;;;;;19.74;62.25;99392.59;5099611;27;20050;-70
2023/07/05 03:22:28;;;;;;;13.40;9.00;;;;;;;19.81;62.57;99393.56;5118006;27;20039;-71
2023/07/05 03:24:54;;;;;;;12.80;8.90;;;;;;;19.83;62.22;99407.75;5118159;27;20465;-70
2023/07/05 03:27:20;;;;;;;12.48;8.88;;;;;;;19.91;62.01;99387.94;5117825;27;20039;-70
2023/07/05 03:29:45;;;;;;;12.25;7.93;;;;;;;20.04;62.05;99398.19;5117900;27;20046;-69
2023/07/05 03:32:10;;;;;;;15.43;7.82;;;;;;;20.15;61.51;99392.41;5078313;27;20047;-71
2023/07/05 03:34:36;;;;;;;16.15;8.05;;;;;;;20.21;61.26;99397.94;5097000;27;20074;-70
2023/07/05 03:37:01;;;;;;;17.67;9.80;;;;;;;20.28;60.77;99393.53;5044820;27;20549;-70
2023/07/05 03:39:26;;;;;;;12.35;8.77;;;;;;;20.31;60.70;99416.69;5078708;27;20480;-69
2023/07/05 03:41:52;;;;;;;17.58;7.68;;;;;;;20.37;60.57;99396.19;5078772;27;20383;-69
2023/07/05 03:44:21;;;;;;;15.13;9.18;;;;;;;20.38;60.58;99406.00;5084844;27;20046;-70
2023/07/05 03:46:47;;;;;;;13.32;9.15;;;;;;;20.43;60.31;99396.31;5116994;27;20046;-70
2023/07/05 03:49:12;;;;;;;16.27;9.23;;;;;;;20.41;60.63;99392.13;5098057;27;20505;-69
2023/07/05 03:51:38;;;;;;;12.95;8.57;;;;;;;20.47;60.14;99389.53;5117529;27;20065;-70
2023/07/05 03:54:03;;;;;;;12.40;8.23;;;;;;;20.50;60.35;99388.34;5117249;27;20038;-68
2023/07/05 03:56:28;;;;;;;17.42;8.90;;;;;;;20.50;60.11;99386.47;5096727;27;20043;-71
2023/07/05 03:58:53;;;;;;;18.25;8.85;;;;;;;20.51;60.18;99379.19;5096613;27;20043;-69
2023/07/05 04:01:21;;;;;;;12.98;8.10;;;;;;;20.54;60.20;99401.31;5096831;27;20050;-72
2023/07/05 04:03:53;;;;;;;13.55;8.15;;;;;;;20.64;60.08;99379.44;5096581;27;20062;-69
2023/07/05 04:06:20;;;;;;;15.52;8.73;;;;;;;20.82;59.83;99377.28;5078219;27;20038;-70
2023/07/05 04:08:45;;;;;;;12.07;8.45;;;;;;;21.03;59.43;99379.28;5078108;27;20035;-71
2023/07/05 04:11:11;;;;;;;11.98;9.32;;;;;;;21.22;58.92;99389.63;5096373;27;20043;-70
2023/07/05 04:13:36;;;;;;;11.82;8.77;;;;;;;21.42;58.66;99405.41;5077844;27;20051;-71
2023/07/05 04:16:17;;;;;;;12.90;8.80;;;;;;;21.58;57.74;99384.38;5078157;27;20047;-69
2023/07/05 04:18:43;;;;;;;13.48;8.98;;;;;;;21.68;57.39;99379.50;5084312;27;20038;-70
2023/07/05 04:21:09;;;;;;;15.80;9.05;;;;;;;21.73;57.08;99376.22;5098201;27;20047;-70
2023/07/05 04:23:35;;;;;;;12.30;8.70;;;;;;;21.66;57.18;99375.31;5098176;27;20049;-70
2023/07/05 04:26:08;;;;;;;14.02;9.07;;;;;;;21.73;57.29;99387.94;5098024;27;20054;-71
2023/07/05 04:28:35;;;;;;;19.60;9.30;;;;;;;21.93;56.85;99388.19;5116618;27;20034;-71
2023/07/05 04:31:01;;;;;;;17.48;8.48;;;;;;;22.18;56.47;99382.50;5098099;27;20039;-69
2023/07/05 04:33:27;;;;;;;14.27;8.23;;;;;;;22.42;55.95;99390.31;5116507;27;20050;-70
2023/07/05 04:35:55;;;;;;;11.70;8.13;;;;;;;22.58;54.69;99391.91;5116383;27;20050;-70
2023/07/05 04:38:20;;;;;;;15.88;8.85;;;;;;;22.62;54.80;99382.38;5097585;27;20049;-70
2023/07/05 04:40:46;;;;;;;13.30;8.18;;;;;;;22.73;54.24;99376.41;5116111;27;20526;-70
2023/07/05 04:43:11;;;;;;;9.93;7.50;;;;;;;22.84;53.37;99392.25;5097528;27;20038;-71
2023/07/05 04:45:36;;;;;;;15.25;7.88;;;;;;;22.96;53.48;99400.72;5098245;27;20039;-70
2023/07/05 04:48:02;;;;;;;14.20;8.00;;;;;;;23.03;53.21;99369.81;5098731;27;20034;-70
2023/07/05 04:50:27;;;;;;;12.50;8.07;;;;;;;23.14;52.95;99384.75;5098498;27;20043;-70
2023/07/05 04:52:52;;;;;;;14.07;8.13;;;;;;;23.27;52.45;99382.16;5116161;27;20396;-69
2023/07/05 04:55:18;;;;;;;13.15;8.05;;;;;;;23.39;51.73;99379.72;5115584;27;20461;-69
2023/07/05 04:57:44;;;;;;;11.27;7.20;;;;;;;23.42;51.54;99391.06;5116132;27;20046;-70
2023/07/05 05:00:11;;;;;;;11.60;7.35;;;;;;;23.47;51.48;99394.03;5115785;27;20049;-70
2023/07/05 05:02:38;;;;;;;11.70;7.57;;;;;;;23.53;51.08;99392.44;5115613;27;20055;-70
2023/07/05 05:05:05;;;;;;;16.45;8.50;;;;;;;23.55;51.22;99390.34;5115962;27;20047;-71
2023/07/05 05:07:31;;;;;;;13.40;7.93;;;;;;;23.58;51.07;99379.06;5096655;27;20047;-69
2023/07/05 05:09:57;;;;;;;14.73;8.35;;;;;;;23.59;51.03;99402.50;5116055;27;20563;-70
2023/07/05 05:12:23;;;;;;;11.82;7.43;;;;;;;23.64;50.85;99377.41;5115972;27;20049;-70
2023/07/05 05:14:48;;;;;;;14.23;7.50;;;;;;;23.69;50.74;99370.34;5116335;27;20038;-71
2023/07/05 05:17:13;;;;;;;12.15;7.15;;;;;;;23.74;50.41;99388.78;5097139;27;20039;-71
2023/07/05 05:19:38;;;;;;;11.75;7.55;;;;;;;23.68;50.54;99356.94;5097444;27;20507;-69
2023/07/05 05:22:03;;;;;;;12.82;7.60;;;;;;;23.65;51.00;99368.22;5115779;27;20497;-70
2023/07/05 05:24:29;;;;;;;12.10;7.38;;;;;;;23.62;50.51;99368.63;5115480;27;20055;-69
2023/07/05 05:26:54;;;;;;;11.48;7.85;;;;;;;23.57;50.50;99371.09;5115784;27;20489;-69
2023/07/05 05:29:20;;;;;;;10.75;7.22;;;;;;;23.59;50.45;99385.38;5115058;27;20046;-70
2023/07/05 05:31:45;;;;;;;16.45;8.40;;;;;;;23.81;50.57;99389.69;5079277;27;20054;-71
2023/07/05 05:34:11;;;;;;;14.98;7.90;;;;;;;24.11;50.21;99358.41;5115942;27;20035;-70
2023/07/05 05:36:37;;;;;;;14.15;7.90;;;;;;;24.41;49.75;99369.84;5097139;27;20409;-69
2023/07/05 05:39:02;;;;;;;15.00;7.95;;;;;;;24.62;48.95;99366.13;5115292;27;20041;-70
2023/07/05 05:41:27;;;;;;;12.38;8.10;;;;;;;24.68;48.31;99370.75;5096142;27;20066;-70
2023/07/05 05:43:53;;;;;;;12.38;8.25;;;;;;;24.67;49.10;99371.81;5115561;27;20405;-70
2023/07/05 05:46:18;;;;;;;17.05;8.32;;;;;;;24.92;48.61;99367.47;5115717;27;20057;-71
2023/07/05 05:48:43;;;;;;;12.88;7.68;;;;;;;25.28;47.72;99377.13;5115315;27;20041;-70
2023/07/05 05:51:08;;;;;;;15.48;8.68;;;;;;;25.76;46.58;99376.88;5096831;27;20046;-70
2023/07/05 05:53:34;;;;;;;14.15;7.50;;;;;;;26.54;45.24;99373.00;5115129;27;20397;-71
2023/07/05 05:55:59;;;;;;;12.70;7.20;;;;;;;27.14;43.86;99372.63;5075598;28;20050;-70
2023/07/05 05:58:24;;;;;;;19.30;7.95;;;;;;;27.06;43.00;99371.84;5094677;28;20043;-70
2023/07/05 06:00:51;;;;;;;10.30;7.00;;;;;;;26.77;43.09;99377.91;5094941;28;20374;-69
2023/07/05 06:03:16;;;;;;;10.00;7.32;;;;;;;26.56;43.36;99372.78;5094536;28;20043;-69
2023/07/05 06:05:41;;;;;;;12.15;7.85;;;;;;;26.75;42.96;99380.03;5092895;28;20059;-71
2023/07/05 06:08:07;;;;;;;16.10;8.07;;;;;;;26.98;42.17;99374.84;5094840;28;20035;-70
2023/07/05 06:10:32;;;;;;;13.77;8.02;;;;;;;27.29;41.68;99375.88;5094497;28;20508;-70
2023/07/05 06:12:58;;;;;;;12.77;7.35;;;;;;;28.36;40.26;99371.78;5094476;27;20043;-72
2023/07/05 06:15:23;;;;;;;15.77;7.35;;;;;;;29.53;38.83;99378.47;5098241;27;20039;-70
2023/07/05 06:17:48;;;;;;;14.25;6.60;;;;;;;30.61;36.52;99326.38;5115461;27;20093;-71
2023/07/05 06:20:16;;;;;;;13.95;8.48;;;;;;;31.24;35.01;99314.25;5115116;27;20046;-71
2023/07/05 06:22:42;;;;;;;11.45;7.85;;;;;;;31.39;34.33;99319.16;5115248;27;20039;-69
2023/07/05 06:25:10;;;;;;;14.35;8.45;;;;;;;30.95;34.39;99320.91;5095958;27;20066;-71
2023/07/05 06:27:35;;;;;;;10.25;7.72;;;;;;;31.38;33.99;99310.06;5114964;27;20085;-70
2023/07/05 06:30:01;;;;;;;15.20;7.70;;;;;;;31.72;33.99;99310.00;5114726;27;20404;-69
2023/07/05 06:32:32;;;;;;;10.00;7.07;;;;;;;32.35;32.97;99314.13;5115058;27;20382;-69
2023/07/05 06:34:57;;;;;;;15.77;8.60;;;;;;;33.04;31.70;99304.06;5115397;27;20054;-69
2023/07/05 06:37:22;;;;;;;12.30;7.28;;;;;;;33.46;31.01;99312.41;5115235;27;20042;-71
2023/07/05 06:39:48;;;;;;;15.18;8.70;;;;;;;33.73;30.56;99319.75;5096613;27;20061;-71
2023/07/05 06:42:13;;;;;;;11.10;7.75;;;;;;;33.28;29.94;99312.84;5118359;27;20042;-72
2023/07/05 06:44:42;;;;;;;12.45;7.70;;;;;;;32.90;30.80;99307.53;5100135;27;20054;-72
2023/07/05 06:47:07;;;;;;;11.32;8.32;;;;;;;32.77;30.91;99312.38;5118580;27;20037;-72
2023/07/05 06:49:32;;;;;;;11.55;7.68;;;;;;;32.70;30.63;99311.75;5118749;27;20039;-71
2023/07/05 06:51:57;;;;;;;13.52;7.78;;;;;;;32.49;31.11;99306.28;5082228;27;20042;-71
2023/07/05 06:54:22;;;;;;;11.95;7.60;;;;;;;32.09;31.46;99311.03;5100049;27;20053;-71
2023/07/05 06:56:48;;;;;;;12.50;8.20;;;;;;;31.68;32.49;99308.88;5082363;27;20046;-71
2023/07/05 06:59:13;;;;;;;12.77;7.97;;;;;;;31.44;32.54;99302.72;5118790;27;20413;-71
2023/07/05 07:01:38;;;;;;;10.70;8.20;;;;;;;31.26;33.46;99309.34;5100148;27;20041;-72
2023/07/05 07:04:07;;;;;;;9.77;6.85;;;;;;;31.12;33.50;99315.44;5118653;27;20059;-71
2023/07/05 07:06:33;;;;;;;15.70;8.15;;;;;;;30.66;34.16;99323.72;5100358;27;20056;-72
2023/07/05 07:09:03;;;;;;;17.70;9.13;;;;;;;30.08;34.85;99309.34;5100035;27;20047;-72
2023/07/05 07:11:28;;;;;;;13.65;8.75;;;;;;;29.68;34.82;99318.38;5098919;27;20047;-71
2023/07/05 07:13:54;;;;;;;12.48;8.43;;;;;;;29.27;35.66;99314.66;5117951;27;20556;-72
2023/07/05 07:16:19;;;;;;;13.35;8.15;;;;;;;28.82;36.44;99310.81;5117978;27;20041;-71
2023/07/05 07:18:46;;;;;;;11.43;7.65;;;;;;;28.33;37.57;99320.19;5082128;27;20424;-72
2023/07/05 07:21:12;;;;;;;13.52;8.57;;;;;;;28.23;37.26;99317.97;5118344;27;20493;-71
2023/07/05 07:23:37;;;;;;;9.32;7.30;;;;;;;28.16;37.93;99307.06;5081977;27;20051;-71
2023/07/05 07:26:18;;;;;;;9.55;7.28;;;;;;;28.33;37.80;99312.75;5099389;27;20045;-72
2023/07/05 07:28:49;;;;;;;14.10;8.13;;;;;;;28.34;38.11;99311.69;5117966;27;20043;-71
2023/07/05 07:31:18;;;;;;;13.65;7.82;;;;;;;28.41;38.64;99319.84;5117590;27;20047;-72
2023/07/05 07:33:45;;;;;;;11.00;8.95;;;;;;;28.43;38.38;99315.81;5098820;27;20394;-72
2023/07/05 07:36:13;;;;;;;12.38;9.00;;;;;;;28.23;38.87;99311.66;5117279;27;20440;-72
2023/07/05 07:38:40;;;;;;;10.75;7.35;;;;;;;28.21;38.40;99319.28;5117803;27;20476;-72
2023/07/05 07:41:21;;;;;;;13.30;8.10;;;;;;;28.24;38.47;99311.41;5098536;27;20050;-73
2023/07/05 07:43:50;;;;;;;14.77;8.27;;;;;;;28.29;37.69;99322.53;5081282;27;20538;-72
2023/07/05 07:46:18;;;;;;;10.82;8.18;;;;;;;28.47;37.81;99314.25;5080952;27;20054;-72
2023/07/05 07:48:47;;;;;;;13.75;8.95;;;;;;;28.55;37.03;99315.84;5117521;27;20424;-71
2023/07/05 07:51:12;;;;;;;11.48;7.85;;;;;;;28.67;36.62;99318.63;5098380;27;20043;-71
2023/07/05 07:53:37;;;;;;;13.30;8.70;;;;;;;28.76;36.41;99314.47;5117504;27;20066;-72
2023/07/05 07:56:15;;;;;;;14.20;8.77;;;;;;;29.07;36.82;99321.59;5098772;27;20046;-72
2023/07/05 07:58:41;;;;;;;16.70;8.13;;;;;;;29.30;37.35;99323.50;5117123;27;20509;-71
2023/07/05 08:01:15;;;;;;;15.77;8.68;;;;;;;29.73;36.70;99317.66;5117508;27;20053;-73
2023/07/05 08:03:41;;;;;;;11.27;8.10;;;;;;;30.24;35.47;99314.09;5097999;27;20504;-71
2023/07/05 08:06:07;;;;;;;14.18;8.80;;;;;;;30.35;35.55;99326.97;5099384;27;20528;-71
2023/07/05 08:08:36;;;;;;;11.95;8.77;;;;;;;30.09;35.20;99335.75;5116845;27;20034;-71
2023/07/05 08:11:03;;;;;;;11.00;8.27;;;;;;;29.49;36.53;99330.56;5118039;27;20051;-71
2023/07/05 08:13:30;;;;;;;8.98;7.60;;;;;;;29.09;37.43;99328.50;5098342;27;20453;-71
2023/07/05 08:15:55;;;;;;;14.65;8.40;;;;;;;28.86;38.04;99331.22;5116961;27;20049;-71
2023/07/05 08:18:20;;;;;;;11.32;8.27;;;;;;;28.70;38.31;99316.22;5097639;27;20053;-71
2023/07/05 08:20:45;;;;;;;15.60;9.18;;;;;;;28.65;38.80;99318.84;5080486;27;20448;-71
2023/07/05 08:23:11;;;;;;;11.95;8.57;;;;;;;28.67;39.21;99322.19;5116716;27;20039;-71
2023/07/05 08:25:39;;;;;;;11.43;9.00;;;;;;;29.14;38.69;99336.84;5098320;27;20046;-71
2023/07/05 08:28:05;;;;;;;18.48;9.00;;;;;;;29.91;38.03;99334.81;5097606;27;20050;-72
2023/07/05 08:30:30;;;;;;;12.55;9.30;;;;;;;30.56;37.35;99334.53;5098168;27;20045;-70
2023/07/05 08:32:57;;;;;;;16.88;9.00;;;;;;;30.84;37.50;99341.91;5115423;27;20030;-74
2023/07/05 08:35:22;;;;;;;14.60;9.52;;;;;;;30.67;36.85;99339.16;5064068;27;20047;-74
2023/07/05 08:37:48;;;;;;;14.15;9.93;;;;;;;30.28;36.94;99332.59;5106871;27;20497;-73
2023/07/05 08:40:17;;;;;;;14.30;9.57;;;;;;;30.15;37.46;99337.53;5115407;27;20054;-73
2023/07/05 08:43:06;;;;;;;15.35;9.85;;;;;;;31.10;36.60;99339.63;5116839;27;20042;-73
2023/07/05 08:45:39;;;;;;;11.18;8.75;;;;;;;32.26;35.06;99344.13;5097234;27;20050;-72
2023/07/05 08:48:06;;;;;;;20.02;9.98;;;;;;;33.05;33.77;99338.88;5116247;27;20037;-72
2023/07/05 08:50:36;;;;;;;15.32;9.65;;;;;;;33.01;33.68;99386.59;5098011;27;20463;-73
2023/07/05 08:53:14;;;;;;;14.13;8.95;;;;;;;33.09;33.62;99389.72;5115564;27;20047;-73
2023/07/05 08:55:48;;;;;;;12.73;9.57;;;;;;;32.75;33.91;99383.59;5080669;27;20840;-75
2023/07/05 08:58:20;;;;;;;13.70;9.85;;;;;;;33.12;33.89;99347.75;5113389;27;20042;-72
2023/07/05 09:00:57;;;;;;;12.70;9.57;;;;;;;33.66;33.13;99344.03;5095351;27;20412;-73
2023/07/05 09:03:24;;;;;;;13.50;9.88;;;;;;;34.23;32.04;99375.34;5096971;27;20062;-74
2023/07/05 09:06:09;;;;;;;13.88;10.00;;;;;;;35.14;31.36;99330.44;5114624;27;20039;-73
2023/07/05 09:08:55;;;;;;;15.20;11.45;;;;;;;34.86;31.57;99331.81;5109868;27;20034;-72
2023/07/05 09:11:31;;;;;;;19.38;10.45;;;;;;;34.37;32.05;99336.13;5114609;27;20057;-73
2023/07/05 09:14:19;;;;;;;13.38;9.50;;;;;;;34.71;32.22;99331.78;5097082;27;20046;-71
2023/07/05 09:16:58;;;;;;;12.82;9.18;;;;;;;35.13;31.22;99336.25;5097658;27;20047;-73
2023/07/05 09:19:58;;;;;;;18.92;9.98;;;;;;;35.25;31.55;99332.13;5115941;27;20045;-73
2023/07/05 09:22:29;;;;;;;18.05;11.05;;;;;;;34.56;32.03;99348.34;5012435;28;20061;-73
2023/07/05 09:24:56;;;;;;;12.95;10.55;;;;;;;33.92;32.94;99331.22;4996100;28;20047;-72
2023/07/05 09:27:30;;;;;;;16.40;10.88;;;;;;;33.36;34.21;99339.13;5012497;28;20061;-72
2023/07/05 09:30:10;;;;;;;16.75;9.98;;;;;;;32.81;35.11;99335.63;4995977;28;20042;-73
2023/07/05 09:32:39;;;;;;;13.63;10.10;;;;;;;32.03;35.85;99334.16;5012580;28;20053;-71
2023/07/05 09:35:21;;;;;;;14.32;10.82;;;;;;;32.10;36.74;99331.19;5012267;28;20056;-71
2023/07/05 09:38:01;;;;;;;16.80;10.30;;;;;;;33.05;34.77;99330.59;5007774;28;20037;-72
2023/07/05 09:40:31;;;;;;;15.35;10.82;;;;;;;33.30;33.56;99329.13;4993422;28;20052;-76
2023/07/05 09:43:04;;;;;;;12.18;10.68;;;;;;;33.13;33.70;99326.50;5009112;28;20532;-73
2023/07/05 09:45:29;;;;;;;16.05;10.30;;;;;;;32.62;34.19;99322.44;4989072;28;20050;-72
2023/07/05 09:48:00;;;;;;;13.93;10.10;;;;;;;31.98;35.50;99325.81;5010949;28;20048;-72
2023/07/05 09:50:26;;;;;;;15.02;9.90;;;;;;;31.33;36.22;99329.28;4963240;28;20041;-72
2023/07/05 09:52:58;;;;;;;13.77;9.77;;;;;;;30.84;37.44;99321.81;5002182;28;20053;-72
2023/07/05 09:55:27;;;;;;;10.95;9.57;;;;;;;30.25;38.40;99326.72;5010907;28;20116;-71
2023/07/05 09:57:53;;;;;;;14.63;9.75;;;;;;;29.74;38.92;99338.56;5023280;27;20106;-73
2023/07/05 10:00:33;;;;;;;12.90;9.77;;;;;;;29.34;40.12;99347.53;5114328;27;20043;-72
2023/07/05 10:03:10;;;;;;;12.13;9.77;;;;;;;29.07;40.84;99396.53;5114492;27;20046;-73
2023/07/05 10:05:35;;;;;;;15.07;11.48;;;;;;;28.62;40.96;99392.53;5078679;27;20042;-72
2023/07/05 10:08:04;;;;;;;15.40;11.05;;;;;;;28.27;41.96;99390.47;5096806;27;20047;-71
2023/07/05 10:10:36;;;;;;;14.25;9.77;;;;;;;28.06;41.70;99412.84;5092131;27;20034;-70
2023/07/05 10:13:29;;;;;;;17.17;10.52;;;;;;;27.56;42.69;99421.13;5114656;27;20120;-72
2023/07/05 10:16:03;;;;;;;14.00;11.18;;;;;;;27.13;43.64;99388.22;5117691;27;20504;-71
2023/07/05 10:18:34;;;;;;;14.23;9.75;;;;;;;26.87;44.18;99413.81;5100289;27;20057;-71
2023/07/05 10:21:18;;;;;;;15.02;9.98;;;;;;;26.85;44.73;99415.13;5101433;27;20043;-73
2023/07/05 10:23:44;;;;;;;20.00;10.18;;;;;;;26.63;44.88;99376.34;5100307;27;20042;-72
2023/07/05 10:26:11;;;;;;;19.95;12.85;;;;;;;26.50;44.81;99431.94;5099703;27;20069;-71
2023/07/05 10:28:41;;;;;;;16.70;10.07;;;;;;;26.36;45.48;99433.03;5096348;27;20034;-71
2023/07/05 10:31:26;;;;;;;14.68;9.55;;;;;;;26.31;45.43;99416.44;5118415;27;20038;-72
2023/07/05 10:34:04;;;;;;;15.35;9.38;;;;;;;26.12;46.71;99420.91;5118288;27;20042;-73
2023/07/05 10:36:29;;;;;;;16.00;9.88;;;;;;;25.95;46.93;99411.50;5081801;27;20604;-72
2023/07/05 10:38:55;;;;;;;18.63;10.55;;;;;;;25.90;47.83;99446.81;5116870;27;20047;-72
2023/07/05 10:41:21;;;;;;;14.23;9.73;;;;;;;25.90;47.96;99431.25;5118432;27;20078;-73
2023/07/05 10:43:49;;;;;;;14.10;10.25;;;;;;;25.93;47.76;99430.00;5097076;27;20046;-76
2023/07/05 10:46:19;;;;;;;19.90;11.60;;;;;;;26.01;47.88;99443.41;5100155;27;20046;-77
2023/07/05 10:48:44;;;;;;;16.48;11.18;;;;;;;26.14;47.47;99431.59;5118466;27;20043;-75
2023/07/05 10:51:20;;;;;;;18.92;10.43;;;;;;;26.32;47.92;99431.78;5117304;27;20038;-76
2023/07/05 10:53:55;;;;;;;20.00;11.63;;;;;;;26.43;47.57;99422.91;5115287;27;20034;-76
2023/07/05 10:56:26;;;;;;;18.55;10.50;;;;;;;26.54;47.92;99435.03;5118171;27;20030;-76
2023/07/05 10:59:25;;;;;;;14.05;9.90;;;;;;;26.63;47.75;99420.94;5118347;27;21027;-76
2023/07/05 11:01:58;;;;;;;17.85;10.48;;;;;;;26.50;47.71;99425.63;5116720;27;20510;-77
2023/07/05 11:04:29;;;;;;;15.90;10.38;;;;;;;26.44;47.50;99426.47;5095906;27;20655;-78
2023/07/05 11:07:01;;;;;;;23.17;11.63;;;;;;;26.44;47.57;99421.00;5071169;27;20493;-76
2023/07/05 11:09:30;;;;;;;13.52;10.68;;;;;;;26.44;47.50;99431.94;5114018;27;20060;-76
2023/07/05 11:12:04;;;;;;;26.73;12.60;;;;;;;26.50;47.53;99431.94;5117376;27;20042;-75
2023/07/05 11:14:30;;;;;;;13.60;10.48;;;;;;;26.54;47.89;99435.03;5093813;27;20043;-77
2023/07/05 11:16:57;;;;;;;17.95;11.00;;;;;;;26.57;48.04;99427.25;5077135;27;20054;-73
2023/07/05 11:19:27;;;;;;;17.63;11.07;;;;;;;26.54;49.18;99463.22;5099050;27;20038;-72
2023/07/05 11:21:53;;;;;;;25.92;11.95;;;;;;;26.12;50.51;99439.19;5117121;27;20050;-71
2023/07/05 11:24:25;;;;;;;20.35;11.57;;;;;;;25.58;51.57;99438.41;5096652;27;20404;-75
2023/07/05 11:26:50;;;;;;;20.60;12.00;;;;;;;24.97;51.96;99435.00;5115523;27;20038;-75
2023/07/05 11:29:27;;;;;;;17.65;12.45;;;;;;;24.42;54.55;99445.09;5099040;27;20034;-76
2023/07/05 11:31:53;;;;;;;16.25;10.93;;;;;;;23.93;54.87;99438.97;5117155;27;20518;-75